Glen Burnie, Maryland
Current Conditions -  °F | °C
As of 8:03 PM on Tuesday 21 Oct 2014 (Local Time) from KBWI Reporting Station
Light Rain Light Rain  
Wind Chill: 55°   Ceiling: 4700
Heat Index: 55°   Visibility: 4mi
Dew Point: 54°   Wind: 13mph
Humidity: 94%   Direction: 300°WNW
Pressure: 29.86"   Gusts: NA
Location:  39.16°N, 76.62°W
Report Text: KBWI 220003Z 30011KT 4SM -RA BR SCT032 BKN047 OVC075 13/12 A2986 RMK AO2 TSE2357 P0000
Loading
Personal Weather Stations






























Interactive Weather Map
Tropical Storm Tracking
New forecast layout! Learn more

10-Day Weather Forecast

Advertisements
Track Severe Weather on mobile